Portada
METAR-TAF:

METAR-TAF

Aeroports :

Pacific Missile Test Facility Barking Sands

Kekaha, Hawaii, Estats Units d'Amèrica

latitud: 22-02-11N, longitud: 159-47-11W, altitud: 4 m

Observació

L'informe es va fer fa 1 hora i 1 minuts, a les 03:07 UTC
Vent 5 kt del Nord/Nord-Oest
Temperatura 29°C
Humitat 62%
Pressió 1014 hPa
Visibilitat: 16.1 km
Núvols disperses a una alçada de 3700 ft
Cel ennuvolat a una alçada de 5500 ft

METAR: PHBK 010307Z AUTO 33005KT 10SM SCT037 BKN055 29/21 A2994 RMK AO2 T02890211

Hora: 18:08 (04:08 UTC)


TAF: manca

Observacions i pronòstics meteorològics de més de 4000 aeroports (METAR i TAF).

Les estacions disponibles són els punts grocs i vermells al mapa.

Posi el ratolí al punt desitjat per veure el nom de l'estació.

Feu clic per veure les observacions i els pronòstics meteorològics.

Per canviar el mapa: feu clic els botons verds amb una creu de color negre per apropar; al botó verd amb un guió per allunyar la imatge; o en les fletxes verdes per a mapes adjacents.


METAR-TAF: